Time;durP1;ratioP1;P1;durP2;ratioP2;P2;SDS_P1;SDS_P2;PMS_P1;PMS_P2;Temp;Humidity;BMP_temperature;BMP_pressure;BME280_temperature;BME280_humidity;BME280_pressure;Samples;Min_cycle;Max_cycle;Signal;HPM_P1;HPM_P2
2022/01/16 00:00:09;;;;;;;16.07;10.43;;;;;;;-3.24;100.00;99598.00;5016269;28;20025;-59
2022/01/16 00:05:04;;;;;;;19.70;9.63;;;;;;;-3.26;100.00;99611.22;5012764;28;20282;-58
2022/01/16 00:07:30;;;;;;;18.97;10.60;;;;;;;-3.31;100.00;99605.97;5015062;28;20040;-58
2022/01/16 00:09:55;;;;;;;16.23;9.33;;;;;;;-3.31;100.00;99608.47;5016715;28;20030;-59
2022/01/16 00:12:23;;;;;;;17.00;9.67;;;;;;;-3.33;100.00;99602.53;5011633;28;20531;-59
2022/01/16 00:14:50;;;;;;;17.93;10.47;;;;;;;-3.33;100.00;99602.53;5013308;28;20037;-60
2022/01/16 00:17:15;;;;;;;16.97;9.03;;;;;;;-3.36;100.00;99622.44;5015573;28;20049;-59
2022/01/16 00:19:41;;;;;;;15.20;8.53;;;;;;;-3.35;100.00;99624.13;5015695;28;20602;-59
2022/01/16 00:22:13;;;;;;;13.13;8.90;;;;;;;-3.39;100.00;99572.13;5012788;28;20030;-60
2022/01/16 00:24:39;;;;;;;14.23;8.30;;;;;;;-3.41;100.00;99561.19;5013874;28;20034;-62
2022/01/16 00:27:04;;;;;;;16.27;9.37;;;;;;;-3.44;100.00;99572.72;5015362;28;20484;-60
2022/01/16 00:29:31;;;;;;;12.20;7.63;;;;;;;-3.46;100.00;99604.34;5017148;28;20038;-59
2022/01/16 00:31:57;;;;;;;14.57;9.00;;;;;;;-3.53;100.00;99568.09;5012396;28;20467;-59
2022/01/16 00:34:22;;;;;;;13.70;8.93;;;;;;;-3.48;100.00;99593.38;5012561;28;20061;-59
2022/01/16 00:36:48;;;;;;;13.87;8.37;;;;;;;-3.55;100.00;99582.16;5012592;28;20034;-58
2022/01/16 00:39:14;;;;;;;15.53;8.23;;;;;;;-3.49;100.00;99586.63;5015346;28;20041;-60
2022/01/16 00:41:40;;;;;;;14.63;7.80;;;;;;;-3.45;100.00;99560.94;5012831;28;20161;-60
2022/01/16 00:44:06;;;;;;;16.63;8.77;;;;;;;-3.51;100.00;99548.09;5013686;28;20063;-59
2022/01/16 00:46:32;;;;;;;14.73;8.57;;;;;;;-3.57;100.00;99556.19;5014850;28;20068;-60
2022/01/16 00:48:57;;;;;;;15.93;8.60;;;;;;;-3.57;100.00;99537.78;5012916;28;20030;-60
2022/01/16 00:51:23;;;;;;;13.90;7.77;;;;;;;-3.50;100.00;99560.72;5011288;28;20072;-60
2022/01/16 00:53:49;;;;;;;13.97;8.23;;;;;;;-3.58;100.00;99566.13;5012503;28;20048;-60
2022/01/16 00:56:15;;;;;;;12.97;7.77;;;;;;;-3.66;100.00;99518.13;5015196;28;20563;-60
2022/01/16 00:58:41;;;;;;;15.33;8.83;;;;;;;-3.62;100.00;99529.16;5018181;28;20054;-60
2022/01/16 01:01:07;;;;;;;21.20;8.67;;;;;;;-3.62;100.00;99559.22;5019140;28;20029;-58
2022/01/16 01:03:32;;;;;;;12.37;7.70;;;;;;;-3.65;100.00;99551.56;5017240;28;20476;-61
2022/01/16 01:05:58;;;;;;;16.70;9.00;;;;;;;-3.67;100.00;99538.06;5018353;28;20065;-57
2022/01/16 01:08:26;;;;;;;16.93;10.27;;;;;;;-3.71;100.00;99577.16;5012676;28;20154;-59
2022/01/16 01:10:53;;;;;;;16.60;9.73;;;;;;;-3.61;100.00;99593.53;5013928;28;20404;-60
2022/01/16 01:13:24;;;;;;;13.73;8.33;;;;;;;-3.62;100.00;99574.25;5018696;28;20042;-60
2022/01/16 01:15:58;;;;;;;13.83;8.10;;;;;;;-3.66;100.00;99598.31;5007848;28;20041;-60
2022/01/16 01:18:24;;;;;;;19.03;9.57;;;;;;;-3.61;100.00;99540.91;5014641;28;20153;-60
2022/01/16 01:20:51;;;;;;;15.23;7.87;;;;;;;-3.68;100.00;99482.09;5016266;28;20521;-58
2022/01/16 01:23:17;;;;;;;14.53;8.37;;;;;;;-3.73;100.00;99489.38;5017196;28;20047;-60
2022/01/16 01:25:43;;;;;;;18.83;8.40;;;;;;;-3.78;100.00;99482.44;5025679;28;20547;-59
2022/01/16 01:28:09;;;;;;;15.97;9.00;;;;;;;-3.74;100.00;99481.81;5014950;28;20044;-59
2022/01/16 01:30:37;;;;;;;18.73;9.53;;;;;;;-3.80;100.00;99482.34;5014404;28;20021;-58
2022/01/16 01:33:03;;;;;;;12.93;7.53;;;;;;;-3.80;100.00;99517.41;5050008;28;20117;-60
2022/01/16 01:35:28;;;;;;;15.13;8.10;;;;;;;-3.74;100.00;99527.75;5017955;28;20037;-60
2022/01/16 01:37:54;;;;;;;13.73;7.97;;;;;;;-3.80;100.00;99524.94;5018385;28;20440;-60
2022/01/16 01:40:25;;;;;;;12.30;7.73;;;;;;;-3.80;100.00;99536.59;5016113;28;20514;-60
2022/01/16 01:51:15;;;;;;;12.97;7.47;;;;;;;-3.91;100.00;99521.03;5017617;28;20044;-60
2022/01/16 01:53:43;;;;;;;13.23;7.40;;;;;;;-3.89;100.00;99503.56;5018413;28;20031;-59
2022/01/16 01:56:11;;;;;;;12.90;8.13;;;;;;;-3.87;100.00;99499.50;5014339;28;20512;-60
2022/01/16 01:58:38;;;;;;;15.07;8.43;;;;;;;-3.92;100.00;99510.91;5014155;28;20527;-60
2022/01/16 02:01:04;;;;;;;12.70;7.93;;;;;;;-3.91;100.00;99507.63;5016098;28;20041;-59
2022/01/16 02:03:42;;;;;;;12.50;7.07;;;;;;;-3.96;100.00;99516.53;5017158;28;20034;-60
2022/01/16 02:06:12;;;;;;;18.03;8.10;;;;;;;-3.91;100.00;99515.16;5014958;28;20056;-60
2022/01/16 02:08:38;;;;;;;12.57;7.17;;;;;;;-3.93;100.00;99495.03;5017080;28;20120;-59
2022/01/16 02:11:04;;;;;;;13.63;8.30;;;;;;;-3.91;100.00;99506.00;5016425;28;20583;-59
2022/01/16 02:13:33;;;;;;;13.17;7.23;;;;;;;-3.97;100.00;99499.78;5015006;28;20034;-60
2022/01/16 02:34:59;;;;;;;13.50;7.10;;;;;;;-3.97;100.00;99470.59;5015669;28;20579;-59
2022/01/16 02:37:25;;;;;;;10.93;6.13;;;;;;;-4.01;100.00;99460.34;5023103;28;20050;-58
2022/01/16 02:39:52;;;;;;;10.10;7.13;;;;;;;-4.00;100.00;99454.56;5021261;28;20506;-58
2022/01/16 02:42:19;;;;;;;11.20;6.47;;;;;;;-4.04;100.00;99453.56;5017590;28;20045;-57
2022/01/16 02:44:49;;;;;;;14.27;7.40;;;;;;;-4.05;100.00;99458.47;5015765;28;20092;-58
2022/01/16 02:47:19;;;;;;;12.30;7.03;;;;;;;-4.00;100.00;99472.09;5020719;28;20033;-60
2022/01/16 02:49:48;;;;;;;12.83;7.30;;;;;;;-3.97;100.00;99468.09;5020750;28;20541;-58
2022/01/16 02:52:16;;;;;;;14.13;7.37;;;;;;;-3.98;100.00;99471.38;5018296;28;20069;-56
2022/01/16 02:54:44;;;;;;;12.93;7.27;;;;;;;-4.01;100.00;99463.72;5016690;28;20115;-59
2022/01/16 02:57:13;;;;;;;13.23;6.43;;;;;;;-4.04;100.00;99458.56;5019429;28;20057;-59
2022/01/16 02:59:41;;;;;;;15.93;6.40;;;;;;;-4.02;100.00;99454.47;5023720;28;20029;-56
2022/01/16 03:02:07;;;;;;;11.33;6.97;;;;;;;-4.04;100.00;99458.56;5016140;28;20844;-61
2022/01/16 03:04:33;;;;;;;14.17;7.37;;;;;;;-4.07;100.00;99438.38;5018284;28;20574;-60
2022/01/16 03:07:01;;;;;;;13.57;7.17;;;;;;;-4.04;100.00;99447.69;5019177;28;20030;-60
2022/01/16 03:09:36;;;;;;;14.47;7.17;;;;;;;-4.07;100.00;99450.88;5018363;28;20482;-60
2022/01/16 03:12:06;;;;;;;;;;;;;;;-4.12;100.00;99436.44;5011977;28;20072;-60
2022/01/16 03:14:33;;;;;;;10.27;6.17;;;;;;;-4.16;100.00;99445.44;5015755;28;20284;-60
2022/01/16 03:16:59;;;;;;;12.03;7.37;;;;;;;-4.20;100.00;99448.56;5017612;28;20044;-60
2022/01/16 03:22:09;;;;;;;12.97;6.67;;;;;;;-4.28;100.00;99433.13;5015687;28;20095;-61
2022/01/16 03:24:46;;;;;;;11.20;7.17;;;;;;;-4.30;100.00;99431.31;5017089;28;20456;-61
2022/01/16 03:27:13;;;;;;;11.87;7.80;;;;;;;-4.32;100.00;99447.88;5015739;28;20034;-61
2022/01/16 03:29:40;;;;;;;14.13;7.43;;;;;;;-4.38;100.00;99443.44;5013105;28;20358;-60
2022/01/16 03:32:08;;;;;;;14.30;7.80;;;;;;;-4.38;100.00;99445.09;5011814;28;21066;-59
2022/01/16 03:34:33;;;;;;;13.03;7.27;;;;;;;-4.41;100.00;99437.44;5023260;28;20496;-61
2022/01/16 03:36:59;;;;;;;10.80;7.70;;;;;;;-4.45;100.00;99431.38;5019599;28;20040;-59
2022/01/16 03:39:25;;;;;;;11.90;7.27;;;;;;;-4.46;100.00;99434.69;5015037;28;20030;-61
2022/01/16 03:41:51;;;;;;;9.23;5.73;;;;;;;-4.46;100.00;99433.81;5014943;28;20041;-60
2022/01/16 03:44:16;;;;;;;15.10;7.90;;;;;;;-4.49;100.00;99434.50;5018377;28;20029;-58
2022/01/16 03:46:43;;;;;;;11.00;6.97;;;;;;;-4.45;100.00;99440.53;5014380;28;20421;-59
2022/01/16 03:49:14;;;;;;;14.27;7.07;;;;;;;-4.46;100.00;99427.19;5014451;28;20043;-57
2022/01/16 03:51:42;;;;;;;10.03;6.87;;;;;;;-4.51;100.00;99422.69;5013224;28;20041;-54
2022/01/16 03:54:10;;;;;;;12.37;7.13;;;;;;;-4.56;100.00;99424.09;5017073;28;20033;-58
2022/01/16 03:56:36;;;;;;;13.70;7.17;;;;;;;-4.55;100.00;99429.19;5012300;28;20040;-58
2022/01/16 03:59:02;;;;;;;13.10;7.53;;;;;;;-4.60;100.00;99425.56;5014401;28;20053;-57
2022/01/16 04:01:27;;;;;;;12.30;6.53;;;;;;;-4.61;100.00;99432.22;5011551;28;20032;-58
2022/01/16 04:03:54;;;;;;;11.80;6.70;;;;;;;-4.65;100.00;99429.47;5015287;28;20179;-58
2022/01/16 04:06:21;;;;;;;9.60;5.80;;;;;;;-4.63;100.00;99435.44;5013262;28;20502;-58
2022/01/16 04:08:48;;;;;;;11.37;6.33;;;;;;;-4.66;100.00;99436.09;5013334;28;20038;-59
2022/01/16 04:11:14;;;;;;;12.67;6.60;;;;;;;-4.67;100.00;99434.38;5013623;28;20034;-59
2022/01/16 04:13:48;;;;;;;12.33;7.80;;;;;;;-4.68;100.00;99424.31;5015249;28;20037;-59
2022/01/16 04:16:14;;;;;;;11.57;6.40;;;;;;;-4.70;100.00;99423.34;5014937;28;20387;-56
2022/01/16 04:18:40;;;;;;;11.97;5.90;;;;;;;-4.73;100.00;99429.06;5012529;28;20053;-59
2022/01/16 04:21:06;;;;;;;13.60;7.20;;;;;;;-4.81;100.00;99416.94;5016811;28;20025;-58
2022/01/16 04:23:31;;;;;;;14.93;7.77;;;;;;;-4.75;100.00;99425.59;5014222;28;20033;-59
2022/01/16 04:25:57;;;;;;;17.17;8.73;;;;;;;-4.79;100.00;99423.72;5013736;28;20467;-59
2022/01/16 04:28:24;;;;;;;40.10;14.97;;;;;;;-4.76;100.00;99421.41;5011073;28;20045;-60
2022/01/16 04:30:53;;;;;;;29.67;11.63;;;;;;;-4.82;100.00;99428.56;5015002;28;20036;-58
2022/01/16 04:33:20;;;;;;;25.37;10.10;;;;;;;-4.85;100.00;99417.56;5016589;28;20037;-59
2022/01/16 04:35:45;;;;;;;14.67;8.13;;;;;;;-4.82;100.00;99421.06;5013186;28;20052;-59
2022/01/16 04:38:11;;;;;;;15.13;8.03;;;;;;;-4.79;100.00;99418.72;5011372;28;20499;-61
2022/01/16 04:40:43;;;;;;;17.07;7.90;;;;;;;-4.82;100.00;99421.06;5017104;28;20026;-60
2022/01/16 04:45:57;;;;;;;16.03;7.20;;;;;;;-4.87;100.00;99407.47;5012827;28;20558;-61
2022/01/16 04:48:23;;;;;;;11.80;7.13;;;;;;;-4.87;100.00;99414.97;5010311;28;20065;-60
2022/01/16 04:50:48;;;;;;;13.50;7.13;;;;;;;-4.89;100.00;99416.53;5014770;28;20064;-61
2022/01/16 04:53:14;;;;;;;13.03;6.27;;;;;;;-4.80;100.00;99417.03;5014508;28;20038;-59
2022/01/16 04:55:39;;;;;;;10.90;5.90;;;;;;;-4.79;100.00;99417.84;5012060;28;20037;-61
2022/01/16 04:58:05;;;;;;;13.43;8.00;;;;;;;-4.78;100.00;99410.44;5011865;28;20525;-58
2022/01/16 05:00:30;;;;;;;10.93;6.40;;;;;;;-4.77;100.00;99416.31;5015085;28;20597;-56
2022/01/16 05:02:55;;;;;;;14.93;6.57;;;;;;;-4.82;100.00;99402.69;5014590;28;20038;-56
2022/01/16 05:05:21;;;;;;;11.77;6.00;;;;;;;-4.83;100.00;99401.84;5012435;28;20079;-60
2022/01/16 05:07:46;;;;;;;13.27;7.93;;;;;;;-4.88;100.00;99384.88;5013370;28;20463;-59
2022/01/16 05:10:13;;;;;;;11.87;6.53;;;;;;;-4.83;100.00;99399.34;5016654;28;20105;-61
2022/01/16 05:12:41;;;;;;;12.87;7.10;;;;;;;-4.86;100.00;99396.69;5014644;28;20039;-60
2022/01/16 05:17:51;;;;;;;9.23;6.33;;;;;;;-4.91;100.00;99387.22;5013160;28;20108;-57
2022/01/16 05:20:17;;;;;;;10.40;6.23;;;;;;;-4.86;100.00;99391.69;5012977;28;20454;-59
2022/01/16 05:22:43;;;;;;;12.30;6.33;;;;;;;-4.78;100.00;99387.09;5011974;28;20040;-60
2022/01/16 05:25:11;;;;;;;13.60;8.30;;;;;;;-4.83;100.00;99390.97;5012589;28;20120;-58
2022/01/16 05:27:38;;;;;;;11.63;6.73;;;;;;;-4.78;100.00;99387.94;5012587;28;20502;-59
2022/01/16 05:30:03;;;;;;;13.77;7.50;;;;;;;-4.84;100.00;99382.63;5015289;28;20385;-60
2022/01/16 05:32:29;;;;;;;13.50;6.67;;;;;;;-4.82;100.00;99393.56;5016090;28;20045;-60
2022/01/16 05:34:54;;;;;;;16.70;8.53;;;;;;;-4.81;100.00;99399.44;5010380;28;20041;-60
2022/01/16 05:37:20;;;;;;;13.93;8.10;;;;;;;-4.85;100.00;99392.53;5014545;28;20038;-59
2022/01/16 05:39:47;;;;;;;13.67;7.83;;;;;;;-4.88;100.00;99392.41;5014137;28;20030;-61
2022/01/16 05:42:13;;;;;;;12.37;8.07;;;;;;;-4.91;100.00;99390.56;5012787;28;20022;-58
2022/01/16 05:44:39;;;;;;;17.30;8.57;;;;;;;-4.91;100.00;99393.06;5014773;28;20041;-60
2022/01/16 05:47:05;;;;;;;16.20;9.10;;;;;;;-4.91;100.00;99399.69;5018758;28;20104;-60
2022/01/16 05:49:30;;;;;;;19.50;10.20;;;;;;;-4.89;100.00;99401.53;5017237;28;20116;-60
2022/01/16 05:51:56;;;;;;;16.17;8.73;;;;;;;-4.89;100.00;99405.66;5016452;28;20033;-61
2022/01/16 05:54:21;;;;;;;19.87;8.03;;;;;;;-4.95;100.00;99395.31;5016629;28;20501;-60
2022/01/16 05:56:48;;;;;;;18.40;9.73;;;;;;;-4.93;100.00;99409.66;5018161;28;20034;-61
2022/01/16 05:59:13;;;;;;;37.07;17.13;;;;;;;-4.96;100.00;99396.94;5017009;28;20045;-61
2022/01/16 06:01:39;;;;;;;36.83;16.77;;;;;;;-4.89;100.00;99401.53;5015749;28;20479;-61
2022/01/16 06:04:04;;;;;;;44.20;18.23;;;;;;;-4.98;100.00;99388.53;5015386;28;20040;-60
2022/01/16 06:06:30;;;;;;;175.87;56.23;;;;;;;-4.90;100.00;99397.31;5016423;28;20081;-61
2022/01/16 06:08:55;;;;;;;214.70;69.10;;;;;;;-4.94;100.00;99392.91;5019188;28;20042;-61
2022/01/16 06:11:21;;;;;;;263.43;86.90;;;;;;;-4.94;100.00;99397.06;5014654;28;20030;-61
2022/01/16 06:13:47;;;;;;;173.03;54.83;;;;;;;-4.98;100.00;99396.03;5016582;28;20030;-61
2022/01/16 06:16:13;;;;;;;64.27;19.90;;;;;;;-5.01;100.00;99387.50;5018152;28;20087;-61
2022/01/16 06:18:39;;;;;;;30.97;12.83;;;;;;;-5.00;100.00;99392.56;5017447;28;20068;-59
2022/01/16 06:21:04;;;;;;;22.83;9.57;;;;;;;-4.87;100.00;99389.09;5014233;28;20033;-59
2022/01/16 06:23:29;;;;;;;17.50;8.57;;;;;;;-4.79;100.00;99391.22;5014135;28;20022;-61
2022/01/16 06:25:55;;;;;;;18.17;8.10;;;;;;;-4.85;100.00;99387.53;5016345;28;20562;-60
2022/01/16 06:28:22;;;;;;;19.73;8.60;;;;;;;-4.85;100.00;99393.41;5015154;28;20484;-60
2022/01/16 06:30:48;;;;;;;22.70;8.57;;;;;;;-4.93;100.00;99386.28;5013083;28;20040;-60
2022/01/16 06:33:14;;;;;;;19.30;9.40;;;;;;;-4.89;100.00;99403.16;5016847;28;20033;-60
2022/01/16 06:35:39;;;;;;;19.03;8.37;;;;;;;-4.93;100.00;99403.78;5027241;28;20040;-61
2022/01/16 06:38:06;;;;;;;25.43;11.47;;;;;;;-4.91;100.00;99413.06;5016944;28;20048;-59
2022/01/16 06:40:31;;;;;;;34.10;13.37;;;;;;;-4.94;100.00;99407.06;5014061;28;20037;-58
2022/01/16 06:42:57;;;;;;;29.87;13.27;;;;;;;-4.90;100.00;99411.44;5014237;28;20368;-60
2022/01/16 06:45:22;;;;;;;27.83;12.30;;;;;;;-4.86;100.00;99405.81;5016067;28;20411;-60
2022/01/16 06:47:48;;;;;;;25.73;11.00;;;;;;;-4.85;100.00;99400.91;5014347;28;20029;-59
2022/01/16 06:50:13;;;;;;;27.80;12.33;;;;;;;-4.88;100.00;99397.41;5011628;28;20045;-59
2022/01/16 06:52:39;;;;;;;24.10;10.87;;;;;;;-4.75;100.00;99403.09;5013451;28;20531;-59
2022/01/16 06:55:06;;;;;;;22.40;9.70;;;;;;;-4.73;100.00;99400.69;5013151;28;20089;-58
2022/01/16 06:57:31;;;;;;;18.07;8.63;;;;;;;-4.73;100.00;99398.19;5013578;28;20496;-59
2022/01/16 06:59:57;;;;;;;15.80;7.87;;;;;;;-4.74;100.00;99384.81;5012811;28;20100;-60
2022/01/16 07:02:22;;;;;;;19.10;9.23;;;;;;;-4.73;100.00;99380.69;5015208;28;20112;-60
2022/01/16 07:04:48;;;;;;;18.43;8.63;;;;;;;-4.69;100.00;99383.44;5014659;28;20217;-58
2022/01/16 07:07:13;;;;;;;16.10;9.00;;;;;;;-4.68;100.00;99374.28;5014020;28;20049;-59
2022/01/16 07:09:39;;;;;;;14.43;7.70;;;;;;;-4.61;100.00;99377.19;5012647;28;20064;-60
2022/01/16 07:12:06;;;;;;;18.47;9.80;;;;;;;-4.57;100.00;99384.84;5015891;28;20447;-60
2022/01/16 07:14:31;;;;;;;28.47;13.80;;;;;;;-4.53;100.00;99386.72;5016854;28;20025;-60
2022/01/16 07:16:57;;;;;;;46.63;20.50;;;;;;;-4.49;100.00;99391.97;5013029;28;20099;-59
2022/01/16 07:19:22;;;;;;;22.30;13.87;;;;;;;-4.40;100.00;99394.09;5011867;28;20683;-59
2022/01/16 07:21:47;;;;;;;19.97;9.80;;;;;;;-4.30;100.00;99394.66;5014444;28;20038;-58
2022/01/16 07:24:15;;;;;;;16.40;9.60;;;;;;;-4.19;100.00;99403.56;5013773;28;20030;-60
2022/01/16 07:26:44;;;;;;;13.37;8.10;;;;;;;-4.09;100.00;99402.41;5011928;28;20076;-61
2022/01/16 07:29:11;;;;;;;13.70;7.73;;;;;;;-3.99;100.00;99408.72;5012676;28;20391;-59
2022/01/16 07:31:38;;;;;;;14.40;7.87;;;;;;;-3.99;100.00;99397.06;5015989;28;20068;-60
2022/01/16 07:34:06;;;;;;;12.90;7.13;;;;;;;-3.88;100.00;99390.09;5016368;28;20485;-60
2022/01/16 07:36:31;;;;;;;12.87;6.50;;;;;;;-3.77;100.00;99401.47;5011978;28;20048;-60
2022/01/16 07:38:57;;;;;;;10.70;6.97;;;;;;;-3.65;100.00;99396.22;5012218;28;20034;-60
2022/01/16 07:41:22;;;;;;;12.03;8.40;;;;;;;-3.58;100.00;99399.09;5015001;28;20045;-59
2022/01/16 07:43:48;;;;;;;11.20;7.30;;;;;;;-3.47;100.00;99397.97;5015135;28;20472;-62
2022/01/16 07:46:13;;;;;;;13.77;7.53;;;;;;;-3.46;100.00;99398.81;5017719;28;20036;-59
2022/01/16 07:48:39;;;;;;;11.47;6.57;;;;;;;-3.33;100.00;99397.00;5015403;28;20103;-61
2022/01/16 07:51:04;;;;;;;13.07;8.13;;;;;;;-3.23;100.00;99398.28;5020288;28;20044;-57
2022/01/16 07:53:30;;;;;;;16.37;7.80;;;;;;;-3.06;100.00;99402.47;5015580;28;20538;-59
2022/01/16 07:55:55;;;;;;;9.83;6.37;;;;;;;-3.04;100.00;99388.31;5015019;28;20029;-57
2022/01/16 07:58:21;;;;;;;11.63;7.33;;;;;;;-2.93;100.00;99404.72;4991840;28;20417;-58
2022/01/16 08:00:46;;;;;;;14.67;7.13;;;;;;;-2.86;100.00;99405.88;4992293;28;20026;-58
2022/01/16 08:03:12;;;;;;;10.03;6.30;;;;;;;-2.70;100.00;99403.28;4989634;28;20042;-60
2022/01/16 08:05:37;;;;;;;13.73;7.40;;;;;;;-2.56;100.00;99397.22;4987354;28;20045;-57
2022/01/16 08:08:03;;;;;;;20.93;11.27;;;;;;;-2.49;100.00;99401.72;4989901;28;20534;-58
2022/01/16 08:10:29;;;;;;;32.57;14.00;;;;;;;-2.36;100.00;99398.97;4985544;28;20041;-58
2022/01/16 08:12:55;;;;;;;33.13;14.83;;;;;;;-2.22;100.00;99394.56;4986637;28;20034;-56
2022/01/16 08:15:20;;;;;;;31.77;13.10;;;;;;;-2.04;100.00;99384.44;4986418;28;20018;-59
2022/01/16 08:17:46;;;;;;;40.50;17.77;;;;;;;-1.87;100.00;99386.00;4989194;28;20030;-58
2022/01/16 08:20:11;;;;;;;33.30;14.73;;;;;;;-1.71;100.00;99375.78;4986242;28;20041;-56
2022/01/16 08:22:38;;;;;;;34.87;16.70;;;;;;;-1.54;100.00;99366.41;4988183;28;20042;-57
2022/01/16 08:25:06;;;;;;;28.93;13.60;;;;;;;-1.43;100.00;99370.22;4989268;28;20053;-54
2022/01/16 08:27:31;;;;;;;42.77;18.60;;;;;;;-1.31;100.00;99370.69;4987544;28;20031;-57
2022/01/16 08:29:57;;;;;;;34.27;13.70;;;;;;;-1.23;100.00;99369.34;4988395;28;20034;-54
2022/01/16 08:32:22;;;;;;;25.83;12.30;;;;;;;-1.27;100.00;99364.97;4988062;28;20034;-57
2022/01/16 08:34:48;;;;;;;22.30;11.67;;;;;;;-1.19;100.00;99373.69;4987463;28;20050;-55
2022/01/16 08:37:14;;;;;;;28.83;12.83;;;;;;;-1.09;100.00;99360.69;4988261;28;20041;-59
2022/01/16 08:39:39;;;;;;;40.30;17.23;;;;;;;-0.89;100.00;99356.38;4987282;28;20042;-58
2022/01/16 08:42:05;;;;;;;27.97;14.67;;;;;;;-0.63;100.00;99355.69;4990317;28;20104;-58
2022/01/16 08:44:30;;;;;;;21.53;10.97;;;;;;;-0.52;100.00;99346.03;4987599;28;20504;-58
2022/01/16 08:46:56;;;;;;;17.40;9.30;;;;;;;-0.31;100.00;99346.81;4983555;28;20031;-57
2022/01/16 08:49:21;;;;;;;14.80;8.40;;;;;;;-0.13;100.00;99339.84;4982935;28;20466;-59
2022/01/16 08:51:47;;;;;;;13.83;8.43;;;;;;;0.07;100.00;99347.25;4987255;28;20038;-60
2022/01/16 08:54:12;;;;;;;16.20;8.37;;;;;;;0.21;100.00;99351.09;4988205;28;20050;-57
2022/01/16 08:56:38;;;;;;;15.60;8.63;;;;;;;0.37;100.00;99360.88;4986648;28;20034;-60
2022/01/16 08:59:03;;;;;;;16.27;9.97;;;;;;;0.46;100.00;99335.97;4983875;28;20054;-60
2022/01/16 09:01:29;;;;;;;20.80;11.80;;;;;;;0.68;100.00;99345.06;4985553;28;20034;-60
2022/01/16 09:03:55;;;;;;;21.60;13.20;;;;;;;0.82;100.00;99342.16;4985760;28;20093;-59
2022/01/16 09:06:21;;;;;;;25.80;14.07;;;;;;;0.96;100.00;99341.72;4987605;28;20034;-59
2022/01/16 09:08:46;;;;;;;19.00;11.23;;;;;;;1.01;100.00;99336.00;4987161;28;20552;-60
2022/01/16 09:11:12;;;;;;;16.73;9.97;;;;;;;1.12;100.00;99343.88;4983162;28;20038;-59
2022/01/16 09:13:40;;;;;;;15.20;10.60;;;;;;;1.14;100.00;99340.63;4985368;28;20035;-59
2022/01/16 09:16:07;;;;;;;17.47;10.23;;;;;;;1.09;100.00;99342.16;4984017;28;20419;-58
2022/01/16 09:18:33;;;;;;;21.03;11.03;;;;;;;1.22;100.00;99349.28;4988267;28;20034;-57
2022/01/16 09:21:01;;;;;;;14.97;10.17;;;;;;;1.30;100.00;99352.88;4990562;28;20041;-55
2022/01/16 09:23:27;;;;;;;15.43;10.07;;;;;;;1.37;100.00;99339.59;4992554;28;20030;-59
2022/01/16 09:25:53;;;;;;;15.70;9.93;;;;;;;1.55;100.00;99343.47;4987604;28;20113;-58
2022/01/16 09:28:18;;;;;;;16.23;10.33;;;;;;;1.51;100.00;99342.53;4989983;28;20041;-58
2022/01/16 09:30:44;;;;;;;19.00;11.80;;;;;;;1.54;100.00;99339.22;4991184;28;20428;-60
2022/01/16 09:33:09;;;;;;;23.73;12.50;;;;;;;1.56;100.00;99338.47;4991346;28;20038;-59
2022/01/16 09:35:35;;;;;;;22.60;12.47;;;;;;;1.75;100.00;99343.19;4986940;28;20416;-59
2022/01/16 09:38:01;;;;;;;27.77;13.40;;;;;;;1.79;100.00;99345.00;4987936;28;20039;-60
2022/01/16 09:40:27;;;;;;;22.00;13.47;;;;;;;1.81;100.00;99337.47;4988602;28;20503;-58
2022/01/16 09:42:52;;;;;;;22.53;12.10;;;;;;;1.83;100.00;99334.13;4987529;28;20149;-60
2022/01/16 09:45:18;;;;;;;19.97;11.17;;;;;;;1.96;100.00;99332.78;4984941;28;20030;-59
2022/01/16 09:47:45;;;;;;;17.93;10.67;;;;;;;1.99;100.00;99324.44;4988861;28;20034;-59
2022/01/16 09:50:14;;;;;;;17.10;11.60;;;;;;;1.89;100.00;99327.53;4988467;28;20022;-58
2022/01/16 09:52:41;;;;;;;17.17;11.03;;;;;;;1.92;100.00;99325.09;4987871;28;20492;-59
2022/01/16 09:55:08;;;;;;;19.17;11.83;;;;;;;2.00;100.00;99308.44;4989667;28;20034;-60
2022/01/16 09:57:35;;;;;;;16.77;10.93;;;;;;;2.00;100.00;99321.09;4986274;28;20058;-59
2022/01/16 10:00:02;;;;;;;17.67;11.13;;;;;;;1.96;100.00;99302.44;4990950;28;20035;-56
2022/01/16 10:02:28;;;;;;;18.67;11.73;;;;;;;1.99;100.00;99319.41;4988321;28;20026;-58
2022/01/16 10:04:53;;;;;;;20.87;12.60;;;;;;;1.94;100.00;99315.88;4988155;28;20042;-56
2022/01/16 10:07:19;;;;;;;16.93;11.63;;;;;;;2.15;100.00;99309.72;4986349;28;20042;-58
2022/01/16 10:10:04;;;;;;;14.87;10.60;;;;;;;2.17;100.00;99305.53;4990950;28;20433;-58
2022/01/16 10:12:30;;;;;;;16.35;10.75;;;;;;;2.14;100.00;99304.59;4990111;28;20239;-59
2022/01/16 10:14:56;;;;;;;14.73;10.23;;;;;;;2.28;100.00;99296.53;4988201;28;20117;-55
2022/01/16 10:17:24;;;;;;;16.70;10.77;;;;;;;2.28;100.00;99293.16;4987526;28;20026;-55
2022/01/16 10:20:02;;;;;;;20.10;10.83;;;;;;;2.45;100.00;99293.56;4990499;28;20034;-55
2022/01/16 10:22:43;;;;;;;15.30;9.90;;;;;;;2.57;100.00;99288.78;4984966;28;20045;-56
2022/01/16 10:25:11;;;;;;;15.57;9.90;;;;;;;2.70;100.00;99289.09;4989330;28;20031;-59
2022/01/16 10:27:42;;;;;;;14.70;10.13;;;;;;;3.02;100.00;99279.66;4986227;28;20072;-56
2022/01/16 10:30:12;;;;;;;16.27;11.13;;;;;;;2.93;100.00;99278.63;4987135;28;20038;-58
2022/01/16 10:32:42;;;;;;;16.87;10.00;;;;;;;2.97;100.00;99273.63;4985558;28;20460;-59
2022/01/16 10:35:12;;;;;;;18.87;12.47;;;;;;;3.03;100.00;99275.47;4987410;28;20060;-59
2022/01/16 10:37:44;;;;;;;16.17;10.40;;;;;;;2.99;100.00;99274.53;4979792;28;20038;-57
2022/01/16 10:40:12;;;;;;;20.13;11.53;;;;;;;3.04;100.00;99267.91;4987286;28;20778;-58
2022/01/16 10:42:42;;;;;;;16.20;11.40;;;;;;;3.27;100.00;99260.75;4987054;28;20041;-57
2022/01/16 10:45:10;;;;;;;19.97;11.70;;;;;;;3.36;100.00;99255.00;4985120;28;20042;-54
2022/01/16 10:47:38;;;;;;;19.83;12.33;;;;;;;3.26;100.00;99254.00;4984468;28;20034;-58
2022/01/16 10:50:18;;;;;;;18.43;11.07;;;;;;;2.97;100.00;99255.09;4987329;28;20575;-59
2022/01/16 10:52:57;;;;;;;18.20;11.43;;;;;;;3.17;100.00;99239.47;4986294;28;20464;-58
2022/01/16 10:55:41;;;;;;;17.23;12.27;;;;;;;3.33;100.00;99239.75;4986456;28;20034;-59
2022/01/16 10:58:24;;;;;;;17.97;11.87;;;;;;;3.24;100.00;99222.69;4986138;28;20500;-55
2022/01/16 11:01:03;;;;;;;18.90;11.60;;;;;;;3.41;100.00;99216.28;4990017;28;20041;-53
2022/01/16 11:03:39;;;;;;;25.97;13.40;;;;;;;3.63;100.00;99220.91;4983781;28;20485;-59
2022/01/16 11:06:05;;;;;;;21.77;13.57;;;;;;;3.76;100.00;99219.44;4986044;28;20058;-56
2022/01/16 11:08:32;;;;;;;17.03;11.07;;;;;;;3.80;100.00;99207.66;4984248;28;20042;-58
2022/01/16 11:10:59;;;;;;;24.00;12.87;;;;;;;3.74;100.00;99207.56;4984928;28;20138;-59
2022/01/16 11:13:33;;;;;;;16.27;11.70;;;;;;;3.85;100.00;99203.53;4981601;28;20050;-59
2022/01/16 11:16:03;;;;;;;17.20;12.00;;;;;;;3.87;100.00;99195.13;4986165;28;20034;-59
2022/01/16 11:18:30;;;;;;;16.50;11.80;;;;;;;3.99;100.00;99191.91;4983526;28;20034;-58
2022/01/16 11:23:47;;;;;;;19.80;12.20;;;;;;;3.82;100.00;99175.59;4982635;28;20431;-56
2022/01/16 11:26:13;;;;;;;19.30;10.57;;;;;;;3.67;100.00;99171.97;4983956;28;20030;-58
2022/01/16 11:28:39;;;;;;;15.63;10.10;;;;;;;3.86;100.00;99182.44;4980298;28;20433;-57
2022/01/16 11:31:09;;;;;;;17.87;10.83;;;;;;;4.05;100.00;99184.41;4983942;28;20026;-58
2022/01/16 11:33:35;;;;;;;13.53;9.90;;;;;;;3.94;100.00;99185.94;4984953;28;20148;-57
2022/01/16 11:36:16;;;;;;;17.70;10.00;;;;;;;3.80;100.00;99190.78;4984537;28;20184;-57
2022/01/16 11:38:49;;;;;;;15.63;12.47;;;;;;;3.91;100.00;99188.41;4981931;28;20074;-56
2022/01/16 11:41:24;;;;;;;11.80;8.50;;;;;;;4.05;100.00;99192.03;4984229;28;20392;-58
2022/01/16 11:43:51;;;;;;;15.57;9.70;;;;;;;4.17;100.00;99189.66;4982792;28;20042;-56
2022/01/16 11:46:27;;;;;;;14.07;9.63;;;;;;;4.02;100.00;99181.84;4982723;28;20030;-59
2022/01/16 11:49:04;;;;;;;13.57;8.23;;;;;;;3.99;100.00;99175.00;4984129;28;20038;-57
2022/01/16 11:51:33;;;;;;;14.33;9.20;;;;;;;4.01;100.00;99183.53;4986501;28;20038;-58
2022/01/16 11:54:01;;;;;;;17.00;9.13;;;;;;;4.10;100.00;99170.13;4982998;28;20964;-56
2022/01/16 11:56:43;;;;;;;11.47;8.83;;;;;;;4.23;100.00;99164.41;4982661;28;20035;-59